Time;durP1;ratioP1;P1;durP2;ratioP2;P2;SDS_P1;SDS_P2;PMS_P1;PMS_P2;Temp;Humidity;BMP_temperature;BMP_pressure;BME280_temperature;BME280_humidity;BME280_pressure;Samples;Min_cycle;Max_cycle;Signal;HPM_P1;HPM_P2
2023/05/09 00:01:15;;;;;;;6.90;3.70;;;;;;;;;;5025063;28;20025;-69
2023/05/09 00:03:41;;;;;;;6.95;4.22;;;;;;;;;;5025007;28;20115;-72
2023/05/09 00:06:07;;;;;;;7.30;4.20;;;;;;;;;;5025291;28;20017;-64
2023/05/09 00:08:33;;;;;;;7.30;4.53;;;;;;;;;;5026417;28;20501;-71
2023/05/09 00:10:59;;;;;;;6.40;4.32;;;;;;;;;;5024926;28;20026;-65
2023/05/09 00:13:24;;;;;;;6.40;4.00;;;;;;;;;;5025702;28;20356;-65
2023/05/09 00:15:52;;;;;;;7.47;3.95;;;;;;;;;;5025840;28;20392;-66
2023/05/09 00:18:19;;;;;;;11.32;4.60;;;;;;;;;;5024311;28;20112;-65
2023/05/09 00:20:44;;;;;;;7.00;3.60;;;;;;;;;;5023908;28;20034;-64
2023/05/09 00:23:10;;;;;;;6.25;3.05;;;;;;;;;;5026557;28;20032;-66
2023/05/09 00:25:35;;;;;;;7.88;4.05;;;;;;;;;;5024043;28;20026;-68
2023/05/09 00:28:01;;;;;;;10.35;4.10;;;;;;;;;;5025768;28;20040;-66
2023/05/09 00:30:26;;;;;;;8.85;4.45;;;;;;;;;;5025410;28;20472;-64
2023/05/09 00:32:51;;;;;;;5.78;3.67;;;;;;;;;;5024787;28;20025;-65
2023/05/09 00:35:18;;;;;;;8.27;4.50;;;;;;;;;;5026164;28;20359;-65
2023/05/09 00:37:43;;;;;;;8.35;4.13;;;;;;;;;;5025068;28;20046;-64
2023/05/09 00:40:09;;;;;;;6.82;4.15;;;;;;;;;;5024586;28;20395;-63
2023/05/09 00:42:35;;;;;;;8.57;4.10;;;;;;;;;;5025825;28;20052;-70
2023/05/09 00:45:01;;;;;;;8.38;4.10;;;;;;;;;;5024911;28;20445;-66
2023/05/09 00:47:28;;;;;;;5.85;2.70;;;;;;;;;;5026967;28;20091;-64
2023/05/09 00:49:53;;;;;;;4.55;3.17;;;;;;;;;;5043896;28;20025;-66
2023/05/09 00:52:22;;;;;;;6.90;3.80;;;;;;;;;;5043110;28;20034;-65
2023/05/09 00:54:49;;;;;;;6.38;4.10;;;;;;;;;;5051120;28;20087;-69
2023/05/09 00:57:14;;;;;;;7.93;4.40;;;;;;;;;;5038494;28;20021;-65
2023/05/09 00:59:40;;;;;;;8.02;4.10;;;;;;;;;;5048299;28;20026;-69
2023/05/09 01:02:05;;;;;;;7.13;4.32;;;;;;;;;;5045386;28;20033;-68
2023/05/09 01:04:31;;;;;;;8.32;4.35;;;;;;;;;;5041289;28;20038;-70
2023/05/09 01:07:52;;;;;;;4.35;3.00;;;;;;;;;;5051502;28;20028;-74
2023/05/09 01:10:32;;;;;;;5.80;3.38;;;;;;;;;;4916493;29;20048;-75
2023/05/09 01:13:04;;;;;;;4.28;2.40;;;;;;;;;;4916571;29;20044;-63
2023/05/09 01:15:35;;;;;;;9.52;4.25;;;;;;;;;;4916423;29;20439;-63
2023/05/09 01:18:03;;;;;;;;;;;;;;;;;;4916985;29;20546;-65
2023/05/09 01:20:32;;;;;;;5.70;3.63;;;;;;;;;;4915999;29;20333;-66
2023/05/09 01:23:28;;;;;;;7.10;4.05;;;;;;;;;;4916079;29;20426;-72
2023/05/09 01:25:54;;;;;;;7.30;4.13;;;;;;;;;;4916316;29;20043;-75
2023/05/09 01:28:53;;;;;;;6.38;4.20;;;;;;;;;;4916057;29;20044;-74
2023/05/09 01:31:19;;;;;;;8.68;4.20;;;;;;;;;;4901001;29;20405;-73
2023/05/09 01:33:51;;;;;;;4.05;2.75;;;;;;;;;;4916126;29;20126;-72
2023/05/09 01:36:18;;;;;;;7.40;4.65;;;;;;;;;;4915938;29;20032;-66
2023/05/09 01:38:49;;;;;;;9.25;4.38;;;;;;;;;;4916070;29;20045;-74
2023/05/09 01:41:15;;;;;;;;;;;;;;;;;;4916439;29;20063;-71
2023/05/09 01:43:44;;;;;;;6.57;4.72;;;;;;;;;;4916068;29;19915;-69
2023/05/09 01:46:11;;;;;;;8.30;4.43;;;;;;;;;;4980698;28;20042;-66
2023/05/09 01:48:37;;;;;;;7.35;3.63;;;;;;;;;;5048909;28;20021;-68
2023/05/09 01:51:04;;;;;;;7.50;4.38;;;;;;;;;;5035858;28;20029;-67
2023/05/09 01:53:31;;;;;;;7.95;4.50;;;;;;;;;;5034460;28;20510;-63
2023/05/09 01:55:58;;;;;;;7.15;4.47;;;;;;;;;;5034312;28;20529;-63
2023/05/09 01:58:25;;;;;;;6.75;3.92;;;;;;;;;;5034361;28;20033;-66
2023/05/09 02:00:52;;;;;;;9.57;4.32;;;;;;;;;;5034405;28;20037;-64
2023/05/09 02:03:17;;;;;;;6.10;4.15;;;;;;;;;;5034240;28;20025;-67
2023/05/09 02:05:44;;;;;;;5.20;3.30;;;;;;;;;;5033962;28;20021;-63
2023/05/09 02:08:12;;;;;;;5.25;3.40;;;;;;;;;;5032816;28;20049;-63
2023/05/09 02:10:38;;;;;;;6.43;4.00;;;;;;;;;;5034157;28;20041;-65
2023/05/09 02:13:04;;;;;;;8.60;4.43;;;;;;;;;;5034153;28;20021;-67
2023/05/09 02:15:29;;;;;;;11.07;4.82;;;;;;;;;;5034000;28;20025;-63
2023/05/09 02:17:55;;;;;;;7.15;2.67;;;;;;;;;;5033975;28;20033;-70
2023/05/09 02:20:20;;;;;;;7.57;4.40;;;;;;;;;;5033497;28;20139;-66
2023/05/09 02:22:46;;;;;;;6.53;4.07;;;;;;;;;;5033692;28;20101;-64
2023/05/09 02:25:15;;;;;;;7.75;4.47;;;;;;;;;;5033743;28;20061;-66
2023/05/09 02:27:44;;;;;;;13.43;4.88;;;;;;;;;;5033551;28;20045;-68
2023/05/09 02:30:14;;;;;;;7.10;4.10;;;;;;;;;;5033666;28;20383;-73
2023/05/09 02:32:43;;;;;;;7.50;4.35;;;;;;;;;;5033673;28;20485;-69
2023/05/09 02:35:09;;;;;;;5.05;2.80;;;;;;;;;;5033305;28;20037;-72
2023/05/09 02:37:35;;;;;;;7.47;4.18;;;;;;;;;;5033339;28;20037;-69
2023/05/09 02:40:02;;;;;;;5.82;4.03;;;;;;;;;;5032258;28;20075;-69
2023/05/09 02:42:29;;;;;;;10.75;4.40;;;;;;;;;;5033547;28;20030;-71
2023/05/09 02:44:55;;;;;;;6.53;4.10;;;;;;;;;;5033482;28;20045;-71
2023/05/09 02:47:21;;;;;;;6.90;4.28;;;;;;;;;;5033430;28;20029;-65
2023/05/09 02:49:46;;;;;;;7.40;4.10;;;;;;;;;;5033151;28;20026;-67
2023/05/09 02:52:12;;;;;;;10.00;4.90;;;;;;;;;;5033435;28;20068;-65
2023/05/09 02:54:38;;;;;;;9.40;4.13;;;;;;;;;;5033374;28;20053;-67
2023/05/09 02:57:04;;;;;;;5.00;3.35;;;;;;;;;;5033197;28;20029;-65
2023/05/09 02:59:30;;;;;;;6.85;4.13;;;;;;;;;;5033281;28;20079;-66
2023/05/09 03:01:56;;;;;;;8.98;4.30;;;;;;;;;;5033134;28;20030;-67
2023/05/09 03:04:22;;;;;;;6.40;3.65;;;;;;;;;;5032855;28;20040;-67
2023/05/09 03:06:47;;;;;;;9.02;4.40;;;;;;;;;;5033088;28;20483;-63
2023/05/09 03:09:13;;;;;;;7.65;3.47;;;;;;;;;;5033084;28;20446;-63
2023/05/09 03:11:38;;;;;;;6.50;3.53;;;;;;;;;;5032919;28;20030;-67
2023/05/09 03:14:03;;;;;;;6.93;3.80;;;;;;;;;;5032887;28;20114;-71
2023/05/09 03:16:29;;;;;;;4.50;3.20;;;;;;;;;;5032964;28;20057;-69
2023/05/09 03:18:55;;;;;;;7.72;4.38;;;;;;;;;;5032661;28;20075;-73
2023/05/09 03:21:20;;;;;;;6.25;4.22;;;;;;;;;;5032711;28;20436;-66
2023/05/09 03:23:46;;;;;;;6.70;3.50;;;;;;;;;;5031553;28;20393;-66
2023/05/09 03:26:12;;;;;;;9.65;4.15;;;;;;;;;;5032600;28;20441;-64
2023/05/09 03:28:37;;;;;;;9.82;4.28;;;;;;;;;;5031533;28;20109;-65
2023/05/09 03:31:03;;;;;;;9.65;4.28;;;;;;;;;;5032817;28;20025;-70
2023/05/09 03:33:29;;;;;;;7.07;3.88;;;;;;;;;;5032598;28;20481;-72
2023/05/09 03:35:54;;;;;;;8.75;4.35;;;;;;;;;;5031787;28;20581;-64
2023/05/09 03:38:23;;;;;;;6.65;3.85;;;;;;;;;;5032517;28;20075;-66
2023/05/09 03:40:48;;;;;;;8.25;4.57;;;;;;;;;;5032534;28;20037;-64
2023/05/09 03:43:14;;;;;;;7.70;3.83;;;;;;;;;;5032697;28;20064;-65
2023/05/09 03:45:39;;;;;;;8.30;4.68;;;;;;;;;;5032727;28;20070;-66
2023/05/09 03:48:08;;;;;;;8.20;4.50;;;;;;;;;;5032317;28;20116;-69
2023/05/09 03:50:36;;;;;;;13.93;4.82;;;;;;;;;;5032506;28;20035;-65
2023/05/09 03:53:02;;;;;;;9.27;4.63;;;;;;;;;;5032485;28;20049;-66
2023/05/09 03:55:27;;;;;;;10.07;4.45;;;;;;;;;;5032401;28;20064;-73
2023/05/09 03:57:53;;;;;;;6.97;4.55;;;;;;;;;;5032293;28;20022;-68
2023/05/09 04:00:20;;;;;;;7.93;4.05;;;;;;;;;;5032571;28;20026;-68
2023/05/09 04:02:45;;;;;;;12.73;5.38;;;;;;;;;;5030990;28;20029;-73
2023/05/09 04:05:11;;;;;;;10.68;4.53;;;;;;;;;;5032442;28;20467;-66
2023/05/09 04:07:36;;;;;;;8.68;4.00;;;;;;;;;;5032395;28;20026;-66
2023/05/09 04:10:02;;;;;;;8.77;4.00;;;;;;;;;;5032302;28;20080;-64
2023/05/09 04:12:27;;;;;;;8.88;4.03;;;;;;;;;;5032100;28;20036;-64
2023/05/09 04:14:53;;;;;;;7.95;4.28;;;;;;;;;;5032288;28;20116;-66
2023/05/09 04:17:18;;;;;;;6.85;4.22;;;;;;;;;;5032073;28;20537;-64
2023/05/09 04:19:44;;;;;;;8.05;4.90;;;;;;;;;;5031955;28;20038;-64
2023/05/09 04:22:09;;;;;;;9.30;4.35;;;;;;;;;;5032334;28;20052;-66
2023/05/09 04:24:35;;;;;;;6.57;3.95;;;;;;;;;;5032267;28;20026;-65
2023/05/09 04:27:00;;;;;;;7.03;4.43;;;;;;;;;;5030793;28;20095;-76
2023/05/09 04:29:26;;;;;;;6.13;3.88;;;;;;;;;;5032132;28;20025;-74
2023/05/09 04:31:52;;;;;;;7.68;4.30;;;;;;;;;;5032078;28;20116;-76
2023/05/09 04:34:17;;;;;;;8.25;4.05;;;;;;;;;;5032100;28;20021;-72
2023/05/09 04:36:43;;;;;;;7.68;4.45;;;;;;;;;;5032022;28;20021;-73
2023/05/09 04:39:09;;;;;;;7.88;4.47;;;;;;;;;;5032101;28;20061;-75
2023/05/09 04:41:35;;;;;;;7.20;4.00;;;;;;;;;;5030865;28;20060;-69
2023/05/09 04:44:00;;;;;;;7.10;3.90;;;;;;;;;;5032079;28;20099;-74
2023/05/09 04:46:26;;;;;;;10.30;4.10;;;;;;;;;;5032568;28;20033;-71
2023/05/09 04:48:52;;;;;;;6.93;3.92;;;;;;;;;;5035724;28;20026;-74
2023/05/09 04:51:17;;;;;;;8.82;4.07;;;;;;;;;;5035531;28;20061;-72
2023/05/09 04:53:43;;;;;;;7.85;3.63;;;;;;;;;;5035595;28;20471;-75
2023/05/09 04:56:09;;;;;;;5.30;3.85;;;;;;;;;;5035250;28;20037;-74
2023/05/09 04:58:37;;;;;;;8.65;4.05;;;;;;;;;;5035415;28;20033;-75
2023/05/09 05:01:04;;;;;;;9.38;4.00;;;;;;;;;;5035120;28;20026;-76
2023/05/09 05:03:29;;;;;;;5.90;3.70;;;;;;;;;;5035524;28;20022;-74
2023/05/09 05:05:55;;;;;;;4.32;2.45;;;;;;;;;;5035348;28;20080;-74
2023/05/09 05:08:20;;;;;;;6.65;3.90;;;;;;;;;;5035330;28;20022;-75
2023/05/09 05:10:47;;;;;;;6.63;3.67;;;;;;;;;;5035327;28;20052;-75
2023/05/09 05:13:13;;;;;;;4.70;3.13;;;;;;;;;;5035184;28;20463;-75
2023/05/09 05:15:38;;;;;;;7.40;3.78;;;;;;;;;;5034906;28;20029;-74
2023/05/09 05:18:04;;;;;;;6.03;3.72;;;;;;;;;;5035287;28;20155;-71
2023/05/09 05:20:29;;;;;;;7.47;3.63;;;;;;;;;;5034684;28;20131;-71
2023/05/09 05:22:56;;;;;;;4.30;2.85;;;;;;;;;;5034972;28;20344;-70
2023/05/09 05:25:22;;;;;;;6.57;3.45;;;;;;;;;;5035059;28;20124;-75
2023/05/09 05:27:47;;;;;;;6.90;3.35;;;;;;;;;;5034916;28;20073;-74
2023/05/09 05:30:14;;;;;;;6.65;3.13;;;;;;;;;;5034784;28;20033;-72
2023/05/09 05:32:40;;;;;;;7.32;3.70;;;;;;;;;;5034893;28;20033;-74
2023/05/09 05:35:05;;;;;;;4.28;2.97;;;;;;;;;;5034892;28;20034;-72
2023/05/09 05:37:31;;;;;;;9.32;3.33;;;;;;;;;;5034746;28;20025;-74
2023/05/09 05:39:56;;;;;;;4.28;2.70;;;;;;;;;;5034535;28;20546;-75
2023/05/09 05:42:22;;;;;;;5.78;3.47;;;;;;;;;;5034784;28;20025;-72
2023/05/09 05:44:47;;;;;;;6.80;3.25;;;;;;;;;;5034409;28;20108;-67
2023/05/09 05:47:13;;;;;;;4.82;3.28;;;;;;;;;;5034369;28;20112;-72
2023/05/09 05:49:38;;;;;;;9.02;3.88;;;;;;;;;;5034667;28;20027;-75
2023/05/09 05:52:03;;;;;;;5.38;3.15;;;;;;;;;;5034621;28;20429;-69
2023/05/09 05:54:29;;;;;;;6.80;2.85;;;;;;;;;;5034417;28;20022;-75
2023/05/09 05:56:55;;;;;;;6.03;2.97;;;;;;;;;;5034308;28;20075;-67
2023/05/09 05:59:20;;;;;;;4.90;3.05;;;;;;;;;;5033384;28;20025;-74
2023/05/09 06:01:45;;;;;;;8.02;2.88;;;;;;;;;;5033500;28;20036;-70
2023/05/09 06:04:11;;;;;;;4.53;2.63;;;;;;;;;;5034259;28;20033;-69
2023/05/09 06:06:36;;;;;;;3.15;2.15;;;;;;;;;;5034230;28;20034;-73
2023/05/09 06:09:02;;;;;;;3.63;2.38;;;;;;;;;;5034174;28;20124;-76
2023/05/09 06:11:27;;;;;;;4.57;2.42;;;;;;;;;;5031887;28;20033;-69
2023/05/09 06:13:52;;;;;;;5.35;3.50;;;;;;;;;;5029620;28;20032;-70
2023/05/09 06:16:19;;;;;;;4.63;2.88;;;;;;;;;;5048591;28;20025;-76
2023/05/09 06:18:44;;;;;;;4.30;2.70;;;;;;;;;;5038925;28;20095;-73
2023/05/09 06:21:10;;;;;;;6.22;3.70;;;;;;;;;;5043374;28;20021;-72
2023/05/09 06:23:35;;;;;;;7.03;3.10;;;;;;;;;;5047242;28;20067;-74
2023/05/09 06:26:04;;;;;;;4.88;2.58;;;;;;;;;;5050076;28;20108;-73
2023/05/09 06:28:29;;;;;;;6.03;3.15;;;;;;;;;;5040903;28;20487;-70
2023/05/09 06:30:55;;;;;;;6.05;3.30;;;;;;;;;;5032003;28;20092;-69
2023/05/09 06:33:20;;;;;;;5.35;2.85;;;;;;;;;;5029513;28;20179;-74
2023/05/09 06:35:46;;;;;;;4.38;2.58;;;;;;;;;;5028474;28;20022;-74
2023/05/09 06:38:11;;;;;;;6.55;3.22;;;;;;;;;;5029776;28;20043;-69
2023/05/09 06:40:37;;;;;;;5.40;2.65;;;;;;;;;;5049254;28;20107;-74
2023/05/09 06:43:02;;;;;;;5.50;3.17;;;;;;;;;;5033401;28;20360;-69
2023/05/09 06:45:29;;;;;;;4.85;2.72;;;;;;;;;;5050023;28;20379;-73
2023/05/09 06:47:54;;;;;;;5.38;2.25;;;;;;;;;;5033882;28;20079;-70
2023/05/09 06:50:20;;;;;;;4.68;2.42;;;;;;;;;;5012778;28;20360;-69
2023/05/09 06:52:45;;;;;;;4.10;2.50;;;;;;;;;;5012512;28;20022;-67
2023/05/09 06:55:11;;;;;;;4.72;3.08;;;;;;;;;;5040743;28;20340;-66
2023/05/09 06:57:39;;;;;;;3.00;1.88;;;;;;;;;;5052294;28;20052;-75
2023/05/09 07:00:05;;;;;;;3.63;2.40;;;;;;;;;;5052125;28;20032;-65
2023/05/09 07:02:30;;;;;;;4.57;2.75;;;;;;;;;;5053038;28;20024;-67
2023/05/09 07:04:56;;;;;;;7.40;2.80;;;;;;;;;;5052144;28;20025;-75
2023/05/09 07:07:21;;;;;;;5.32;2.83;;;;;;;;;;5052671;28;20036;-73
2023/05/09 07:09:47;;;;;;;8.27;3.42;;;;;;;;;;5052222;28;20450;-71
2023/05/09 07:12:12;;;;;;;4.47;2.60;;;;;;;;;;5051327;28;20040;-74
2023/05/09 07:14:37;;;;;;;5.07;2.70;;;;;;;;;;5051194;28;20072;-65
2023/05/09 07:17:03;;;;;;;4.03;2.13;;;;;;;;;;5050878;28;20052;-68
2023/05/09 07:19:29;;;;;;;7.00;2.75;;;;;;;;;;5047865;28;20032;-74
2023/05/09 07:21:54;;;;;;;7.35;2.80;;;;;;;;;;5031145;28;20033;-69
2023/05/09 07:24:20;;;;;;;4.10;2.35;;;;;;;;;;5031456;28;20390;-71
2023/05/09 07:26:45;;;;;;;5.88;2.65;;;;;;;;;;5031414;28;20110;-73
2023/05/09 07:29:11;;;;;;;4.68;2.35;;;;;;;;;;5032033;28;20475;-76
2023/05/09 07:31:36;;;;;;;4.05;2.25;;;;;;;;;;5032801;28;20383;-77
2023/05/09 07:34:01;;;;;;;4.30;2.05;;;;;;;;;;5032695;28;20029;-68
2023/05/09 07:36:27;;;;;;;3.25;2.25;;;;;;;;;;5032688;28;20032;-64
2023/05/09 07:38:53;;;;;;;4.63;2.45;;;;;;;;;;5032236;28;20036;-76
2023/05/09 07:41:18;;;;;;;5.90;2.58;;;;;;;;;;5032928;28;20063;-77
2023/05/09 07:43:44;;;;;;;4.53;2.40;;;;;;;;;;5032742;28;20045;-74
2023/05/09 07:46:10;;;;;;;4.05;2.63;;;;;;;;;;5032558;28;20021;-73
2023/05/09 07:48:35;;;;;;;3.55;2.08;;;;;;;;;;5032457;28;20056;-74
2023/05/09 07:51:00;;;;;;;4.90;2.67;;;;;;;;;;5032331;28;20478;-76
2023/05/09 07:53:26;;;;;;;2.80;2.17;;;;;;;;;;5032180;28;20025;-74
2023/05/09 07:55:51;;;;;;;3.63;2.00;;;;;;;;;;5032368;28;20060;-73
2023/05/09 07:58:17;;;;;;;9.30;2.55;;;;;;;;;;5032504;28;20037;-72
2023/05/09 08:00:42;;;;;;;3.63;2.35;;;;;;;;;;5032552;28;20018;-78
2023/05/09 08:03:08;;;;;;;3.15;2.20;;;;;;;;;;5032601;28;20021;-75
2023/05/09 08:05:33;;;;;;;3.25;1.98;;;;;;;;;;5032562;28;20040;-67
2023/05/09 08:07:59;;;;;;;3.08;2.00;;;;;;;;;;5032285;28;20025;-69
2023/05/09 08:10:25;;;;;;;3.30;1.90;;;;;;;;;;5032346;28;20087;-69
2023/05/09 08:12:51;;;;;;;2.97;2.20;;;;;;;;;;5032490;28;20079;-66
2023/05/09 08:15:16;;;;;;;4.18;2.30;;;;;;;;;;5032420;28;20041;-75
2023/05/09 08:17:42;;;;;;;4.10;2.20;;;;;;;;;;5032364;28;20112;-74
2023/05/09 08:20:08;;;;;;;3.55;1.95;;;;;;;;;;5032078;28;20025;-79
2023/05/09 08:22:34;;;;;;;4.60;2.55;;;;;;;;;;5034955;28;20044;-75
2023/05/09 08:25:00;;;;;;;6.88;2.50;;;;;;;;;;5036329;28;20412;-73
2023/05/09 08:27:25;;;;;;;4.38;2.15;;;;;;;;;;5035985;28;20080;-67
2023/05/09 08:29:50;;;;;;;6.43;2.17;;;;;;;;;;5036068;28;20025;-78
2023/05/09 08:32:18;;;;;;;4.68;2.47;;;;;;;;;;5035925;28;20033;-73
2023/05/09 08:34:44;;;;;;;3.72;2.08;;;;;;;;;;5035753;28;20092;-72
2023/05/09 08:37:09;;;;;;;7.95;2.47;;;;;;;;;;5035687;28;20101;-70
2023/05/09 08:39:35;;;;;;;6.47;2.78;;;;;;;;;;5035934;28;20430;-76
2023/05/09 08:42:01;;;;;;;3.58;2.30;;;;;;;;;;5035737;28;20455;-74
2023/05/09 08:44:28;;;;;;;4.07;2.35;;;;;;;;;;5035861;28;20029;-72
2023/05/09 08:46:58;;;;;;;6.45;2.33;;;;;;;;;;5034426;28;20057;-68
2023/05/09 08:49:23;;;;;;;4.38;2.30;;;;;;;;;;5035985;28;20455;-68
2023/05/09 08:51:50;;;;;;;7.65;2.65;;;;;;;;;;5035531;28;20031;-70
2023/05/09 08:54:15;;;;;;;3.75;2.15;;;;;;;;;;5035589;28;20056;-69
2023/05/09 08:56:41;;;;;;;5.57;2.33;;;;;;;;;;5035620;28;20061;-68
2023/05/09 08:59:07;;;;;;;4.47;2.30;;;;;;;;;;5035653;28;20025;-76
2023/05/09 09:01:36;;;;;;;5.10;2.55;;;;;;;;;;5035816;28;20422;-72
2023/05/09 09:04:04;;;;;;;4.07;2.33;;;;;;;;;;5035632;28;20441;-77
2023/05/09 09:06:33;;;;;;;3.03;2.10;;;;;;;;;;5035353;28;20490;-68
2023/05/09 09:08:59;;;;;;;4.35;1.60;;;;;;;;;;5035289;28;20025;-78
2023/05/09 09:11:27;;;;;;;5.72;2.35;;;;;;;;;;5035348;28;20030;-74
2023/05/09 09:13:53;;;;;;;5.57;2.00;;;;;;;;;;5035322;28;20047;-74
2023/05/09 09:16:21;;;;;;;5.95;2.67;;;;;;;;;;5035178;28;20037;-70
2023/05/09 09:18:47;;;;;;;5.22;2.50;;;;;;;;;;5035161;28;20422;-74
2023/05/09 09:21:15;;;;;;;3.95;1.88;;;;;;;;;;5044714;28;20049;-66
2023/05/09 09:23:43;;;;;;;6.45;2.38;;;;;;;;;;5055133;28;20429;-76
2023/05/09 09:26:08;;;;;;;9.25;2.33;;;;;;;;;;5055116;28;20200;-78
2023/05/09 09:28:34;;;;;;;5.30;2.05;;;;;;;;;;5055059;28;20079;-67
2023/05/09 09:31:00;;;;;;;3.53;2.20;;;;;;;;;;5054638;28;20033;-71
2023/05/09 09:33:28;;;;;;;3.15;1.90;;;;;;;;;;5052181;28;20032;-70
2023/05/09 09:35:55;;;;;;;3.75;2.28;;;;;;;;;;5051084;28;20029;-77
2023/05/09 09:38:21;;;;;;;4.20;1.85;;;;;;;;;;5034750;28;20060;-73
2023/05/09 09:40:51;;;;;;;4.40;2.00;;;;;;;;;;5034791;28;20029;-67
2023/05/09 09:43:17;;;;;;;2.30;1.70;;;;;;;;;;5034774;28;20033;-70
2023/05/09 09:45:42;;;;;;;7.75;2.00;;;;;;;;;;5034620;28;20041;-75
2023/05/09 09:48:08;;;;;;;4.88;2.13;;;;;;;;;;5034689;28;20018;-71
2023/05/09 09:50:33;;;;;;;5.32;2.22;;;;;;;;;;5034423;28;20026;-75
2023/05/09 09:52:59;;;;;;;7.38;2.30;;;;;;;;;;5034447;28;20126;-70
2023/05/09 09:55:25;;;;;;;4.07;2.10;;;;;;;;;;5034383;28;20025;-77
2023/05/09 09:57:51;;;;;;;3.63;1.98;;;;;;;;;;5034504;28;20430;-74
2023/05/09 10:00:23;;;;;;;9.00;2.47;;;;;;;;;;5034554;28;20034;-64
2023/05/09 10:02:54;;;;;;;5.18;2.05;;;;;;;;;;5034696;28;20079;-71
2023/05/09 10:05:24;;;;;;;3.40;2.10;;;;;;;;;;5033925;28;20033;-68
2023/05/09 10:07:54;;;;;;;5.78;1.88;;;;;;;;;;5034220;28;20064;-66
2023/05/09 10:10:20;;;;;;;3.95;1.95;;;;;;;;;;5034249;28;20025;-65
2023/05/09 10:12:46;;;;;;;3.72;1.70;;;;;;;;;;5034145;28;20048;-65
2023/05/09 10:15:16;;;;;;;3.15;1.92;;;;;;;;;;5033837;28;20041;-74
2023/05/09 10:17:41;;;;;;;4.47;1.70;;;;;;;;;;5033867;28;20051;-70
2023/05/09 10:20:08;;;;;;;4.82;2.00;;;;;;;;;;5033388;28;20423;-73
2023/05/09 10:22:37;;;;;;;3.55;1.73;;;;;;;;;;5033874;28;20139;-74
2023/05/09 10:25:05;;;;;;;3.47;1.98;;;;;;;;;;5033842;28;20094;-72
2023/05/09 10:27:36;;;;;;;5.55;2.03;;;;;;;;;;5033812;28;20041;-75
2023/05/09 10:30:15;;;;;;;4.10;2.05;;;;;;;;;;5034058;28;20025;-75
2023/05/09 10:32:55;;;;;;;3.10;1.80;;;;;;;;;;5033811;28;20025;-75
2023/05/09 10:35:50;;;;;;;2.58;1.77;;;;;;;;;;5033703;28;20037;-75
2023/05/09 10:38:17;;;;;;;3.50;2.05;;;;;;;;;;5013675;28;20038;-75
2023/05/09 10:40:46;;;;;;;3.33;2.10;;;;;;;;;;5014107;28;20113;-76
2023/05/09 10:43:12;;;;;;;2.67;1.80;;;;;;;;;;5013835;28;20025;-74
2023/05/09 10:45:38;;;;;;;2.92;1.80;;;;;;;;;;5028499;28;20416;-72
2023/05/09 10:48:07;;;;;;;6.57;2.00;;;;;;;;;;5013566;28;20380;-72
2023/05/09 10:50:34;;;;;;;4.72;1.90;;;;;;;;;;5013535;28;20569;-75
2023/05/09 10:53:05;;;;;;;3.67;2.00;;;;;;;;;;5013811;28;20061;-76
2023/05/09 10:55:48;;;;;;;5.30;2.08;;;;;;;;;;5013405;28;20044;-73
2023/05/09 10:58:27;;;;;;;6.40;2.00;;;;;;;;;;5013556;28;20065;-64
2023/05/09 11:00:57;;;;;;;5.43;1.88;;;;;;;;;;5013614;28;20030;-67
2023/05/09 11:03:25;;;;;;;;;;;;;;;;;;5013680;28;20472;-75
2023/05/09 11:05:54;;;;;;;3.28;1.73;;;;;;;;;;5013491;28;19921;-70
2023/05/09 11:08:26;;;;;;;6.88;2.10;;;;;;;;;;5012166;28;20112;-68
2023/05/09 11:10:53;;;;;;;6.00;2.10;;;;;;;;;;5013196;28;20493;-63
2023/05/09 11:13:22;;;;;;;5.47;2.10;;;;;;;;;;5013332;28;20026;-73
2023/05/09 11:16:00;;;;;;;3.20;1.90;;;;;;;;;;5012851;28;20049;-70
2023/05/09 11:18:26;;;;;;;4.05;1.90;;;;;;;;;;5013118;28;20025;-74
2023/05/09 11:20:52;;;;;;;5.88;1.80;;;;;;;;;;5026931;28;20040;-65
2023/05/09 11:23:25;;;;;;;5.55;1.85;;;;;;;;;;5032875;28;20018;-74
2023/05/09 11:25:51;;;;;;;4.20;2.00;;;;;;;;;;5032686;28;20025;-74
2023/05/09 11:28:30;;;;;;;4.80;2.33;;;;;;;;;;5032604;28;20037;-65
2023/05/09 11:31:12;;;;;;;4.57;2.03;;;;;;;;;;5032644;28;20491;-73
2023/05/09 11:33:39;;;;;;;3.42;1.90;;;;;;;;;;5032458;28;20505;-75
2023/05/09 11:36:31;;;;;;;8.10;2.40;;;;;;;;;;5032470;28;20026;-72
2023/05/09 11:39:07;;;;;;;3.78;2.00;;;;;;;;;;5030515;28;20030;-75
2023/05/09 11:41:45;;;;;;;6.05;2.13;;;;;;;;;;5032630;28;20033;-76
2023/05/09 11:44:18;;;;;;;4.40;1.75;;;;;;;;;;5032626;28;20028;-69
2023/05/09 11:46:45;;;;;;;3.38;1.70;;;;;;;;;;5032391;28;20025;-75
2023/05/09 11:49:11;;;;;;;7.93;2.67;;;;;;;;;;5032531;28;20025;-74
2023/05/09 11:51:38;;;;;;;5.65;2.35;;;;;;;;;;5032454;28;20108;-70
2023/05/09 11:54:07;;;;;;;5.20;1.77;;;;;;;;;;5032187;28;20025;-73
2023/05/09 11:56:39;;;;;;;3.47;1.90;;;;;;;;;;5032235;28;20416;-75
2023/05/09 11:59:06;;;;;;;5.03;1.90;;;;;;;;;;5036671;28;20083;-69
2023/05/09 12:01:31;;;;;;;3.00;2.00;;;;;;;;;;5036493;28;20555;-65
2023/05/09 12:03:58;;;;;;;8.82;2.22;;;;;;;;;;5036577;28;20109;-70
2023/05/09 12:06:24;;;;;;;4.28;1.92;;;;;;;;;;5036636;28;20026;-66
2023/05/09 12:08:51;;;;;;;3.10;1.70;;;;;;;;;;5036425;28;20543;-71
2023/05/09 12:11:17;;;;;;;2.53;1.77;;;;;;;;;;5036446;28;20029;-76
2023/05/09 12:13:51;;;;;;;4.40;1.85;;;;;;;;;;5036481;28;20051;-72
2023/05/09 12:16:17;;;;;;;8.70;2.85;;;;;;;;;;5036117;28;20120;-69
2023/05/09 12:18:48;;;;;;;5.60;1.63;;;;;;;;;;5036420;28;20029;-71
2023/05/09 12:21:14;;;;;;;4.03;2.15;;;;;;;;;;5035906;28;20040;-73
2023/05/09 12:23:40;;;;;;;4.22;2.38;;;;;;;;;;5036045;28;20029;-73
2023/05/09 12:26:05;;;;;;;6.05;1.63;;;;;;;;;;5035829;28;20025;-73
2023/05/09 12:28:31;;;;;;;2.88;1.98;;;;;;;;;;5036038;28;20022;-71
2023/05/09 12:30:57;;;;;;;5.82;2.28;;;;;;;;;;5035877;28;20044;-65
2023/05/09 12:33:24;;;;;;;5.95;1.65;;;;;;;;;;5035913;28;20030;-66
2023/05/09 12:36:10;;;;;;;10.73;1.88;;;;;;;;;;5035792;28;20036;-70
2023/05/09 12:38:36;;;;;;;4.93;1.85;;;;;;;;;;5036007;28;20045;-73
2023/05/09 12:41:06;;;;;;;2.60;1.70;;;;;;;;;;5035639;28;20025;-67
2023/05/09 12:43:37;;;;;;;3.25;1.50;;;;;;;;;;5035610;28;20433;-64
2023/05/09 12:46:03;;;;;;;2.80;1.83;;;;;;;;;;5035568;28;20038;-71
2023/05/09 12:48:34;;;;;;;3.33;1.90;;;;;;;;;;5035619;28;20104;-73
2023/05/09 12:51:04;;;;;;;3.95;1.75;;;;;;;;;;5035464;28;20028;-73
2023/05/09 12:53:30;;;;;;;3.03;1.77;;;;;;;;;;5035447;28;20025;-71
2023/05/09 12:56:04;;;;;;;6.07;1.67;;;;;;;;;;5035345;28;20034;-70
2023/05/09 12:58:30;;;;;;;7.97;2.47;;;;;;;;;;5035078;28;20486;-74
2023/05/09 13:00:56;;;;;;;2.70;1.70;;;;;;;;;;5035270;28;20068;-70
2023/05/09 13:03:24;;;;;;;6.45;1.88;;;;;;;;;;5035549;28;20041;-75
2023/05/09 13:06:00;;;;;;;5.60;2.03;;;;;;;;;;5035443;28;20045;-73
2023/05/09 13:08:26;;;;;;;3.65;1.60;;;;;;;;;;5035107;28;20026;-73
2023/05/09 13:10:52;;;;;;;3.95;1.90;;;;;;;;;;5035105;28;20017;-74
2023/05/09 13:13:18;;;;;;;3.22;1.77;;;;;;;;;;5034989;28;20457;-71
2023/05/09 13:15:45;;;;;;;2.60;1.45;;;;;;;;;;5034853;28;20120;-74
2023/05/09 13:18:11;;;;;;;4.00;2.03;;;;;;;;;;5035286;28;20470;-73
2023/05/09 13:20:37;;;;;;;4.50;2.22;;;;;;;;;;5033588;28;20037;-75
2023/05/09 13:23:03;;;;;;;5.55;1.90;;;;;;;;;;5035119;28;20305;-74
2023/05/09 13:25:28;;;;;;;5.88;2.10;;;;;;;;;;5034974;28;20032;-75
2023/05/09 13:27:53;;;;;;;5.40;2.05;;;;;;;;;;5034656;28;20076;-72
2023/05/09 13:30:19;;;;;;;5.35;2.33;;;;;;;;;;5034716;28;20451;-74
2023/05/09 13:32:46;;;;;;;2.10;1.50;;;;;;;;;;5034883;28;20029;-72
2023/05/09 13:35:12;;;;;;;3.40;1.85;;;;;;;;;;5034836;28;20037;-72
2023/05/09 13:37:37;;;;;;;7.68;2.40;;;;;;;;;;5034624;28;20029;-72
2023/05/09 13:40:03;;;;;;;6.30;2.10;;;;;;;;;;5034682;28;20030;-75
2023/05/09 13:42:28;;;;;;;4.53;1.77;;;;;;;;;;5034421;28;20419;-73
2023/05/09 13:44:54;;;;;;;10.20;2.85;;;;;;;;;;5034770;28;20029;-68
2023/05/09 13:47:19;;;;;;;5.78;2.08;;;;;;;;;;5034562;28;20348;-75
2023/05/09 13:49:45;;;;;;;10.10;2.45;;;;;;;;;;5034347;28;20036;-72
2023/05/09 13:52:10;;;;;;;4.03;2.35;;;;;;;;;;5034677;28;20162;-74
2023/05/09 13:54:36;;;;;;;4.20;1.95;;;;;;;;;;5034427;28;20116;-73
2023/05/09 13:57:02;;;;;;;6.07;1.77;;;;;;;;;;5034192;28;20092;-76
2023/05/09 13:59:31;;;;;;;3.30;1.90;;;;;;;;;;5033126;28;20463;-73
2023/05/09 14:01:58;;;;;;;2.58;1.60;;;;;;;;;;5034348;28;20072;-75
2023/05/09 14:04:28;;;;;;;3.83;1.77;;;;;;;;;;5034350;28;20036;-75
2023/05/09 14:06:54;;;;;;;7.10;2.07;;;;;;;;;;5034338;28;20029;-73
2023/05/09 14:09:21;;;;;;;9.43;2.03;;;;;;;;;;5034204;28;20029;-68
2023/05/09 14:11:50;;;;;;;4.35;1.73;;;;;;;;;;5033828;28;20024;-74
2023/05/09 14:14:17;;;;;;;8.23;2.10;;;;;;;;;;5034150;28;20037;-72
2023/05/09 14:16:42;;;;;;;3.95;2.25;;;;;;;;;;5033722;28;20021;-73
2023/05/09 14:19:08;;;;;;;7.15;2.15;;;;;;;;;;5032122;28;20108;-67
2023/05/09 14:21:33;;;;;;;4.78;1.83;;;;;;;;;;5030307;28;20041;-73
2023/05/09 14:23:59;;;;;;;3.80;1.58;;;;;;;;;;5033914;28;20112;-71
2023/05/09 14:26:25;;;;;;;5.47;2.42;;;;;;;;;;5033524;28;20072;-68
2023/05/09 14:28:51;;;;;;;4.03;1.77;;;;;;;;;;5033860;28;20022;-71
2023/05/09 14:31:17;;;;;;;3.85;2.10;;;;;;;;;;5033676;28;20025;-62
2023/05/09 14:33:43;;;;;;;5.07;1.40;;;;;;;;;;5033718;28;20032;-64
2023/05/09 14:36:08;;;;;;;3.78;1.83;;;;;;;;;;5033638;28;20052;-69
2023/05/09 14:38:34;;;;;;;5.90;2.15;;;;;;;;;;5033740;28;20080;-66
2023/05/09 14:41:01;;;;;;;2.70;1.60;;;;;;;;;;5033639;28;20029;-67
2023/05/09 14:43:27;;;;;;;4.43;2.50;;;;;;;;;;5033587;28;20026;-67